Christos Xxii — SVA3834 — position and weather

sailwx.info

Track history (hours):
 
Tides and Currents Weather Stations Pressure Air Temp Water Temp Dewpoint Dewpoint Depression Visibility Wind Speed Wind Dir Waves Ship Positions

Christos Xxii

Last reported at 2018-Jul-19 05:57 UTC. Time now 2018-Jul-20 10:46 UTC.
Position N 37°57' E 023°33'.

Length 44 m; draft 4.8 m.

Type: Tug. MMSI: 241168000.

Date/timePositionNaut miles runAvg speedWind from/ knotsBaromVisibWave heightAir tempDewpointWater temp
2018-Jul-19 05:57N 37°57' E 023°33'0 0.0
2018-Jul-19 05:30N 37°57' E 023°33'0 0.0
2018-Jul-19 05:00N 37°57' E 023°33'0 0.1
2018-Jul-19 04:30N 37°57' E 023°33'2 4.0
2018-Jul-19 04:00N 37°56' E 023°35'3 7.0
2018-Jul-19 03:30N 37°53' E 023°37'4 7.1
2018-Jul-19 03:00N 37°50' E 023°39'3 6.9
2018-Jul-19 02:30N 37°47' E 023°41'3 6.8
2018-Jul-19 02:00N 37°44' E 023°44'3 6.9
2018-Jul-19 01:30N 37°41' E 023°46'47 7.0
2018-Jul-18 18:47N 37°31' E 024°44'2 7.4
2018-Jul-18 18:30N 37°31' E 024°46'4 7.2
2018-Jul-18 18:00N 37°32' E 024°51'4 7.0
2018-Jul-18 17:27N 37°31' E 024°56'3 6.8
2018-Jul-18 17:00N 37°28' E 024°58'3 6.8
2018-Jul-18 16:30N 37°25' E 024°59'1 1.1
2018-Jul-18 16:00N 37°25' E 024°59'1 2.3
2018-Jul-18 15:30N 37°24' E 025°00'1 2.9
2018-Jul-18 15:00N 37°23' E 025°01'1 2.9
2018-Jul-18 14:30N 37°22' E 024°60'2 2.2
2018-Jul-18 13:31N 37°22' E 024°57'0 0.9
2018-Jul-18 13:01N 37°23' E 024°57'1 1.4
2018-Jul-18 12:30N 37°23' E 024°57'1 1.3
2018-Jul-18 12:00N 37°23' E 024°58'1 1.6
2018-Jul-18 11:30N 37°23' E 024°59'10 2.6
2018-Jul-18 07:42N 37°21' E 025°12'1 2.6
2018-Jul-18 07:29N 37°21' E 025°12'1 2.5
2018-Jul-18 07:00N 37°20' E 025°14'2 2.8
2018-Jul-18 06:27N 37°20' E 025°15'2 3.2
2018-Jul-18 05:56N 37°19' E 025°17'2 3.6
2018-Jul-18 05:30N 37°19' E 025°19'2 3.9
2018-Jul-18 05:00N 37°19' E 025°22'2 3.5
2018-Jul-18 04:30N 37°18' E 025°24'2 3.2
2018-Jul-18 04:00N 37°18' E 025°26'1 3.0
2018-Jul-18 03:30N 37°17' E 025°27'1 2.8
2018-Jul-18 03:00N 37°17' E 025°29'1 2.5
2018-Jul-18 02:30N 37°17' E 025°31'2 2.3
2018-Jul-18 01:48N 37°16' E 025°33'6 2.5
2018-Jul-17 23:27N 37°14' E 025°40'1 3.2
2018-Jul-17 23:00N 37°14' E 025°41'2 3.2
2018-Jul-17 22:30N 37°13' E 025°43'2 3.3
2018-Jul-17 22:00N 37°13' E 025°45'2 3.3
2018-Jul-17 21:30N 37°12' E 025°47'1 3.0
2018-Jul-17 21:00N 37°12' E 025°49'  
2018-Jul-10 20:12N 32°57' E 034°48'1 3.7
2018-Jul-10 19:59N 32°57' E 034°49'3 2.5
2018-Jul-10 18:36N 32°56' E 034°53'0 3.7
2018-Jul-10 18:30N 32°56' E 034°53'3 4.4
2018-Jul-10 17:56N 32°55' E 034°56'2 4.4
2018-Jul-10 17:30N 32°53' E 034°57'2 4.3
2018-Jul-10 17:00N 32°52' E 034°59'1 0.1
2018-Jul-10 04:47N 32°51' E 034°60'3 7.7
2018-Jul-10 04:26N 32°52' E 034°57'3 7.1
2018-Jul-10 03:59N 32°54' E 034°53'3 6.3
2018-Jul-10 03:29N 32°55' E 034°50'3 6.7
2018-Jul-10 03:00N 32°55' E 034°46'34 7.6
2018-Jul-09 22:33N 33°01' E 034°06'26 8.3
2018-Jul-09 19:26N 33°06' E 033°36'10 8.9
2018-Jul-09 18:16N 33°08' E 033°24'3 9.9
2018-Jul-09 18:00N 33°09' E 033°21'70 8.7
2018-Jul-09 09:54N 33°25' E 031°58'3 8.3
2018-Jul-09 09:29N 33°26' E 031°54'4 8.5
2018-Jul-09 08:59N 33°27' E 031°50'  
Track history (hours):
 
Tides and Currents Weather Stations Pressure Air Temp Water Temp Dewpoint Dewpoint Depression Visibility Wind Speed Wind Dir Waves Ship Positions

Christos Xxii

Last reported at 2018-Jul-19 05:57 UTC. Time now 2018-Jul-20 10:46 UTC.
Position N 37°57' E 023°33'.

Length 44 m; draft 4.8 m.

Type: Tug. MMSI: 241168000.

Date/timePositionNaut miles runAvg speedWind from/ knotsBaromVisibWave heightAir tempDewpointWater temp
2018-Jul-19 05:57N 37°57' E 023°33'0 0.0
2018-Jul-19 05:30N 37°57' E 023°33'0 0.0
2018-Jul-19 05:00N 37°57' E 023°33'0 0.1
2018-Jul-19 04:30N 37°57' E 023°33'2 4.0
2018-Jul-19 04:00N 37°56' E 023°35'3 7.0
2018-Jul-19 03:30N 37°53' E 023°37'4 7.1
2018-Jul-19 03:00N 37°50' E 023°39'3 6.9
2018-Jul-19 02:30N 37°47' E 023°41'3 6.8
2018-Jul-19 02:00N 37°44' E 023°44'3 6.9
2018-Jul-19 01:30N 37°41' E 023°46'47 7.0
2018-Jul-18 18:47N 37°31' E 024°44'2 7.4
2018-Jul-18 18:30N 37°31' E 024°46'4 7.2
2018-Jul-18 18:00N 37°32' E 024°51'4 7.0
2018-Jul-18 17:27N 37°31' E 024°56'3 6.8
2018-Jul-18 17:00N 37°28' E 024°58'3 6.8
2018-Jul-18 16:30N 37°25' E 024°59'1 1.1
2018-Jul-18 16:00N 37°25' E 024°59'1 2.3
2018-Jul-18 15:30N 37°24' E 025°00'1 2.9
2018-Jul-18 15:00N 37°23' E 025°01'1 2.9
2018-Jul-18 14:30N 37°22' E 024°60'2 2.2
2018-Jul-18 13:31N 37°22' E 024°57'0 0.9
2018-Jul-18 13:01N 37°23' E 024°57'1 1.4
2018-Jul-18 12:30N 37°23' E 024°57'1 1.3
2018-Jul-18 12:00N 37°23' E 024°58'1 1.6
2018-Jul-18 11:30N 37°23' E 024°59'10 2.6
2018-Jul-18 07:42N 37°21' E 025°12'1 2.6
2018-Jul-18 07:29N 37°21' E 025°12'1 2.5
2018-Jul-18 07:00N 37°20' E 025°14'2 2.8
2018-Jul-18 06:27N 37°20' E 025°15'2 3.2
2018-Jul-18 05:56N 37°19' E 025°17'2 3.6
2018-Jul-18 05:30N 37°19' E 025°19'2 3.9
2018-Jul-18 05:00N 37°19' E 025°22'2 3.5
2018-Jul-18 04:30N 37°18' E 025°24'2 3.2
2018-Jul-18 04:00N 37°18' E 025°26'1 3.0
2018-Jul-18 03:30N 37°17' E 025°27'1 2.8
2018-Jul-18 03:00N 37°17' E 025°29'1 2.5
2018-Jul-18 02:30N 37°17' E 025°31'2 2.3
2018-Jul-18 01:48N 37°16' E 025°33'6 2.5
2018-Jul-17 23:27N 37°14' E 025°40'1 3.2
2018-Jul-17 23:00N 37°14' E 025°41'2 3.2
2018-Jul-17 22:30N 37°13' E 025°43'2 3.3
2018-Jul-17 22:00N 37°13' E 025°45'2 3.3
2018-Jul-17 21:30N 37°12' E 025°47'1 3.0
2018-Jul-17 21:00N 37°12' E 025°49'  
2018-Jul-10 20:12N 32°57' E 034°48'1 3.7
2018-Jul-10 19:59N 32°57' E 034°49'3 2.5
2018-Jul-10 18:36N 32°56' E 034°53'0 3.7
2018-Jul-10 18:30N 32°56' E 034°53'3 4.4
2018-Jul-10 17:56N 32°55' E 034°56'2 4.4
2018-Jul-10 17:30N 32°53' E 034°57'2 4.3
2018-Jul-10 17:00N 32°52' E 034°59'1 0.1
2018-Jul-10 04:47N 32°51' E 034°60'3 7.7
2018-Jul-10 04:26N 32°52' E 034°57'3 7.1
2018-Jul-10 03:59N 32°54' E 034°53'3 6.3
2018-Jul-10 03:29N 32°55' E 034°50'3 6.7
2018-Jul-10 03:00N 32°55' E 034°46'34 7.6
2018-Jul-09 22:33N 33°01' E 034°06'26 8.3
2018-Jul-09 19:26N 33°06' E 033°36'10 8.9
2018-Jul-09 18:16N 33°08' E 033°24'3 9.9
2018-Jul-09 18:00N 33°09' E 033°21'70 8.7
2018-Jul-09 09:54N 33°25' E 031°58'3 8.3
2018-Jul-09 09:29N 33°26' E 031°54'4 8.5
2018-Jul-09 08:59N 33°27' E 031°50'  

Dump ship's entire track history